Time,TemperatureF,DewpointF,PressureIn,WindDirection,WindDirectionDegrees,WindSpeedMPH,WindSpeedGustMPH,Humidity,HourlyPrecipIn,Conditions,Clouds,dailyrainin,SoftwareType,DateUTC
2013-01-15 00:00:00,48.5,47.7,30.09,East,91,0.0,0.0,97,0.03,,---,0.84,VWS V14.01,2013-01-15 05:00:00,
2013-01-15 00:01:00,48.5,47.7,30.09,East,91,0.0,0.0,97,0.02,,---,0.00,VWS V14.01,2013-01-15 05:01:00,
2013-01-15 00:02:00,48.5,47.7,30.09,East,92,0.0,0.0,97,0.02,,---,0.00,VWS V14.01,2013-01-15 05:02:00,
2013-01-15 00:03:00,48.5,47.7,30.09,East,92,0.0,0.0,97,0.02,,---,0.00,VWS V14.01,2013-01-15 05:03:00,
2013-01-15 00:08:00,48.5,47.7,30.08,East,91,0.0,0.0,97,0.02,,---,0.00,VWS V14.01,2013-01-15 05:08:00,
2013-01-15 00:10:00,48.5,47.7,30.08,East,92,0.0,0.0,97,0.02,,---,0.00,VWS V14.01,2013-01-15 05:10:00,
2013-01-15 00:13:00,48.5,47.7,30.08,East,92,0.0,0.0,97,0.00,,---,0.00,VWS V14.01,2013-01-15 05:13:00,
2013-01-15 00:18:00,48.6,47.8,30.09,East,91,0.0,0.0,97,0.00,,---,0.00,VWS V14.01,2013-01-15 05:18:00,
2013-01-15 00:20:00,48.6,47.8,30.09,East,92,0.0,0.0,97,0.00,,---,0.00,VWS V14.01,2013-01-15 05:20:00,
2013-01-15 00:23:00,48.7,47.9,30.09,East,91,0.0,0.0,97,0.00,,---,0.00,VWS V14.01,2013-01-15 05:23:00,
2013-01-15 00:28:00,48.7,47.9,30.09,East,92,0.0,0.0,97,0.00,,---,0.00,VWS V14.01,2013-01-15 05:28:00,
2013-01-15 00:30:00,48.7,47.9,30.09,East,92,0.0,0.0,97,0.00,,---,0.00,VWS V14.01,2013-01-15 05:30:00,
2013-01-15 00:33:00,48.7,47.9,30.08,East,91,0.0,0.0,97,0.00,,---,0.00,VWS V14.01,2013-01-15 05:33:00,
2013-01-15 00:38:00,48.7,47.9,30.08,East,91,0.0,0.0,97,0.00,,---,0.00,VWS V14.01,2013-01-15 05:38:00,
2013-01-15 00:40:00,48.6,47.8,30.08,East,91,0.0,0.0,97,0.00,,---,0.00,VWS V14.01,2013-01-15 05:40:00,
2013-01-15 00:43:00,48.5,47.7,30.08,East,92,0.0,0.0,97,0.00,,---,0.00,VWS V14.01,2013-01-15 05:43:00,
2013-01-15 00:48:00,48.5,47.7,30.08,East,91,0.0,0.0,97,0.00,,---,0.00,VWS V14.01,2013-01-15 05:48:00,
2013-01-15 00:50:00,48.5,47.7,30.08,East,91,0.0,0.0,97,0.00,,---,0.00,VWS V14.01,2013-01-15 05:50:00,
2013-01-15 00:53:00,48.5,47.7,30.08,East,91,0.0,0.0,97,0.00,,---,0.00,VWS V14.01,2013-01-15 05:53:00,
2013-01-15 00:58:00,48.5,47.7,30.09,East,91,0.0,0.0,97,0.00,,---,0.00,VWS V14.01,2013-01-15 05:58:00,
2013-01-15 01:00:00,48.6,47.8,30.08,East,91,0.0,0.0,97,0.00,,---,0.00,VWS V14.01,2013-01-15 06:00:00,
2013-01-15 01:03:00,48.7,47.9,30.08,East,92,0.0,0.0,97,0.00,,---,0.00,VWS V14.01,2013-01-15 06:03:00,
2013-01-15 01:08:00,48.7,47.9,30.09,East,92,0.0,0.0,97,0.00,,---,0.00,VWS V14.01,2013-01-15 06:08:00,
2013-01-15 01:10:00,48.7,47.9,30.09,East,92,0.0,0.0,97,0.00,,---,0.00,VWS V14.01,2013-01-15 06:10:00,
2013-01-15 01:13:00,48.7,47.9,30.09,East,92,0.0,0.0,97,0.00,,---,0.00,VWS V14.01,2013-01-15 06:13:00,
2013-01-15 01:18:00,48.7,47.9,30.08,East,91,0.0,0.0,97,0.00,,---,0.00,VWS V14.01,2013-01-15 06:18:00,
2013-01-15 01:20:00,48.7,47.9,30.08,East,92,0.0,0.0,97,0.00,,---,0.00,VWS V14.01,2013-01-15 06:20:00,
2013-01-15 01:23:00,48.6,47.8,30.08,East,91,0.0,0.0,97,0.00,,---,0.00,VWS V14.01,2013-01-15 06:23:00,
2013-01-15 01:28:00,48.6,47.8,30.08,East,92,0.0,0.0,97,0.00,,---,0.00,VWS V14.01,2013-01-15 06:28:00,
2013-01-15 01:30:00,48.6,47.8,30.08,East,91,0.0,0.0,97,0.00,,---,0.00,VWS V14.01,2013-01-15 06:30:00,
2013-01-15 01:33:00,48.5,47.7,30.08,East,91,0.0,0.0,97,0.00,,---,0.00,VWS V14.01,2013-01-15 06:33:00,
2013-01-15 01:38:00,48.5,47.7,30.08,East,91,0.0,0.0,97,0.00,,---,0.00,VWS V14.01,2013-01-15 06:38:00,
2013-01-15 01:40:00,48.6,47.8,30.08,East,91,0.0,0.0,97,0.00,,---,0.00,VWS V14.01,2013-01-15 06:40:00,
2013-01-15 01:43:00,48.6,47.8,30.08,East,92,0.0,0.0,97,0.00,,---,0.00,VWS V14.01,2013-01-15 06:43:00,
2013-01-15 01:48:00,48.6,47.8,30.08,East,90,0.0,0.0,97,0.00,,---,0.00,VWS V14.01,2013-01-15 06:48:00,
2013-01-15 01:50:00,48.6,47.8,30.08,East,91,0.0,0.0,97,0.00,,---,0.00,VWS V14.01,2013-01-15 06:50:00,
2013-01-15 01:53:00,48.6,47.8,30.08,WSW,255,0.0,0.0,97,0.00,,---,0.00,VWS V14.01,2013-01-15 06:53:00,
2013-01-15 01:58:00,48.5,47.7,30.07,WSW,255,0.0,0.0,97,0.00,,---,0.00,VWS V14.01,2013-01-15 06:58:00,
2013-01-15 02:00:00,48.5,47.7,30.07,WSW,255,0.0,0.0,97,0.00,,---,0.00,VWS V14.01,2013-01-15 07:00:00,
2013-01-15 02:03:00,48.5,47.7,30.06,WSW,255,0.0,0.0,97,0.00,,---,0.00,VWS V14.01,2013-01-15 07:03:00,
2013-01-15 02:08:00,48.5,47.7,30.06,WSW,255,0.0,0.0,97,0.00,,---,0.00,VWS V14.01,2013-01-15 07:08:00,
2013-01-15 02:10:00,48.5,47.7,30.06,WSW,255,0.0,0.0,97,0.00,,---,0.00,VWS V14.01,2013-01-15 07:10:00,
2013-01-15 02:13:00,48.5,47.7,30.06,WSW,255,0.0,0.0,97,0.00,,---,0.00,VWS V14.01,2013-01-15 07:13:00,
2013-01-15 02:18:00,48.5,47.7,30.05,WSW,255,0.0,0.0,97,0.00,,---,0.00,VWS V14.01,2013-01-15 07:18:00,
2013-01-15 02:20:00,48.5,47.7,30.05,WSW,255,0.0,0.0,97,0.00,,---,0.00,VWS V14.01,2013-01-15 07:20:00,
2013-01-15 02:23:00,48.5,47.7,30.05,WSW,255,0.0,0.0,97,0.00,,---,0.00,VWS V14.01,2013-01-15 07:23:00,
2013-01-15 02:28:00,48.5,47.7,30.05,WSW,255,0.0,0.0,97,0.00,,---,0.00,VWS V14.01,2013-01-15 07:28:00,
2013-01-15 02:30:00,48.5,47.7,30.05,WSW,255,0.0,0.0,97,0.00,,---,0.00,VWS V14.01,2013-01-15 07:30:00,
2013-01-15 02:33:00,48.5,47.7,30.05,WSW,255,0.0,0.0,97,0.00,,---,0.00,VWS V14.01,2013-01-15 07:33:00,
2013-01-15 02:38:00,48.6,47.8,30.06,WSW,255,0.0,0.0,97,0.00,,---,0.00,VWS V14.01,2013-01-15 07:38:00,
2013-01-15 02:40:00,48.7,47.9,30.06,WSW,255,0.0,0.0,97,0.00,,---,0.00,VWS V14.01,2013-01-15 07:40:00,
2013-01-15 02:43:00,48.7,47.9,30.05,WSW,255,0.0,0.0,97,0.00,,---,0.00,VWS V14.01,2013-01-15 07:43:00,
2013-01-15 02:48:00,48.8,48.0,30.05,WSW,255,0.0,0.0,97,0.00,,---,0.00,VWS V14.01,2013-01-15 07:48:00,
2013-01-15 02:50:00,48.8,48.0,30.05,WSW,255,0.0,0.0,97,0.00,,---,0.00,VWS V14.01,2013-01-15 07:50:00,
2013-01-15 02:53:00,48.8,48.0,30.05,WSW,255,0.0,0.0,97,0.00,,---,0.00,VWS V14.01,2013-01-15 07:53:00,
2013-01-15 02:58:00,48.8,48.0,30.05,WSW,255,0.0,0.0,97,0.00,,---,0.00,VWS V14.01,2013-01-15 07:58:00,
2013-01-15 03:00:00,48.8,48.0,30.05,WSW,255,0.0,0.0,97,0.00,,---,0.00,VWS V14.01,2013-01-15 08:00:00,
2013-01-15 03:03:00,48.8,48.0,30.05,WSW,255,0.0,0.0,97,0.00,,---,0.00,VWS V14.01,2013-01-15 08:03:00,
2013-01-15 03:08:00,48.9,48.1,30.06,WSW,255,0.0,0.0,97,0.00,,---,0.00,VWS V14.01,2013-01-15 08:08:00,
2013-01-15 03:10:00,48.9,48.1,30.06,WSW,255,0.0,0.0,97,0.00,,---,0.00,VWS V14.01,2013-01-15 08:10:00,
2013-01-15 03:13:00,48.9,48.1,30.05,WSW,255,0.0,0.0,97,0.00,,---,0.00,VWS V14.01,2013-01-15 08:13:00,
2013-01-15 03:18:00,49.0,48.2,30.05,WSW,255,0.0,0.0,97,0.00,,---,0.00,VWS V14.01,2013-01-15 08:18:00,
2013-01-15 03:20:00,49.0,48.2,30.05,WSW,255,0.0,0.0,97,0.00,,---,0.00,VWS V14.01,2013-01-15 08:20:00,
2013-01-15 03:23:00,49.1,48.3,30.05,WSW,255,0.0,0.0,97,0.00,,---,0.00,VWS V14.01,2013-01-15 08:23:00,
2013-01-15 03:28:00,49.1,48.6,30.05,WSW,255,0.0,0.0,98,0.00,,---,0.00,VWS V14.01,2013-01-15 08:28:00,
2013-01-15 03:30:00,49.2,48.7,30.05,WSW,255,0.0,0.0,98,0.00,,---,0.00,VWS V14.01,2013-01-15 08:30:00,
2013-01-15 03:33:00,49.2,48.4,30.05,WSW,255,0.0,0.0,97,0.00,,---,0.00,VWS V14.01,2013-01-15 08:33:00,
2013-01-15 03:38:00,49.2,48.4,30.05,WSW,255,0.0,0.0,97,0.00,,---,0.00,VWS V14.01,2013-01-15 08:38:00,
2013-01-15 03:40:00,49.2,48.4,30.05,North,0,0.0,0.0,97,0.00,,---,0.00,VWS V14.01,2013-01-15 08:40:00,
2013-01-15 03:50:00,49.4,48.9,30.05,North,0,0.0,0.0,98,0.00,,---,0.00,VWS V14.01,2013-01-15 08:50:00,
2013-01-15 04:00:00,49.5,49.0,30.05,North,0,0.0,0.0,98,0.00,,---,0.00,VWS V14.01,2013-01-15 09:00:00,
2013-01-15 04:10:00,49.7,49.2,30.05,North,0,0.0,0.0,98,0.00,,---,0.00,VWS V14.01,2013-01-15 09:10:00,
2013-01-15 04:20:00,49.8,49.3,30.05,North,0,0.0,0.0,98,0.00,,---,0.00,VWS V14.01,2013-01-15 09:20:00,
2013-01-15 04:30:00,49.8,49.0,30.04,North,0,0.0,0.0,97,0.00,,---,0.00,VWS V14.01,2013-01-15 09:30:00,
2013-01-15 04:40:00,49.9,49.4,30.05,North,0,0.0,0.0,98,0.00,,---,0.00,VWS V14.01,2013-01-15 09:40:00,
2013-01-15 04:50:00,49.9,49.4,30.05,North,0,0.0,0.0,98,0.00,,---,0.00,VWS V14.01,2013-01-15 09:50:00,
2013-01-15 05:00:00,50.0,49.5,30.04,North,0,0.0,0.0,98,0.00,,---,0.00,VWS V14.01,2013-01-15 10:00:00,
2013-01-15 05:10:00,50.1,49.6,30.04,North,0,0.0,0.0,98,0.00,,---,0.00,VWS V14.01,2013-01-15 10:10:00,
2013-01-15 05:20:00,50.2,49.7,30.04,North,0,0.0,0.0,98,0.00,,---,0.00,VWS V14.01,2013-01-15 10:20:00,
2013-01-15 05:30:00,50.3,49.8,30.04,North,0,0.0,0.0,98,0.00,,---,0.00,VWS V14.01,2013-01-15 10:30:00,
2013-01-15 05:40:00,50.3,49.8,30.03,North,0,0.0,0.0,98,0.00,,---,0.00,VWS V14.01,2013-01-15 10:40:00,
2013-01-15 05:50:00,50.5,50.0,30.04,North,0,0.0,0.0,98,0.00,,---,0.00,VWS V14.01,2013-01-15 10:50:00,
2013-01-15 06:00:00,50.6,50.1,30.03,North,0,0.0,0.0,98,0.00,,---,0.00,VWS V14.01,2013-01-15 11:00:00,
2013-01-15 06:10:00,50.8,50.3,30.04,North,0,0.0,0.0,98,0.00,,---,0.00,VWS V14.01,2013-01-15 11:10:00,
2013-01-15 06:20:00,50.9,50.4,30.04,North,0,0.0,0.0,98,0.02,,---,0.02,VWS V14.01,2013-01-15 11:20:00,
2013-01-15 06:30:00,51.0,50.5,30.05,North,0,0.0,0.0,98,0.03,,---,0.03,VWS V14.01,2013-01-15 11:30:00,
2013-01-15 06:40:00,51.1,50.6,30.05,North,0,0.0,0.0,98,0.03,,---,0.03,VWS V14.01,2013-01-15 11:40:00,
2013-01-15 06:50:00,51.2,50.7,30.04,North,0,0.0,0.0,98,0.05,,---,0.05,VWS V14.01,2013-01-15 11:50:00,
2013-01-15 07:00:00,51.3,50.8,30.05,North,0,0.0,0.0,98,0.07,,---,0.07,VWS V14.01,2013-01-15 12:00:00,
2013-01-15 07:10:00,51.3,50.8,30.05,North,0,0.0,0.0,98,0.08,,---,0.08,VWS V14.01,2013-01-15 12:10:00,
2013-01-15 07:20:00,51.4,50.9,30.06,North,0,0.0,0.0,98,0.09,,---,0.09,VWS V14.01,2013-01-15 12:20:00,
2013-01-15 07:30:00,51.6,51.1,30.06,North,0,0.0,0.0,98,0.07,,---,0.09,VWS V14.01,2013-01-15 12:30:00,
2013-01-15 07:40:00,51.6,51.1,30.06,North,0,0.0,0.0,98,0.06,,---,0.09,VWS V14.01,2013-01-15 12:40:00,
2013-01-15 07:50:00,51.6,51.1,30.06,North,0,0.0,0.0,98,0.07,,---,0.10,VWS V14.01,2013-01-15 12:50:00,
2013-01-15 08:00:00,51.7,51.2,30.06,North,0,0.0,0.0,98,0.07,,---,0.12,VWS V14.01,2013-01-15 13:00:00,
2013-01-15 08:10:00,51.7,51.2,30.07,North,0,0.0,0.0,98,0.07,,---,0.14,VWS V14.01,2013-01-15 13:10:00,
2013-01-15 08:20:00,51.9,51.4,30.07,North,0,0.0,0.0,98,0.07,,---,0.15,VWS V14.01,2013-01-15 13:20:00,
2013-01-15 08:30:00,51.9,51.4,30.07,North,0,0.0,0.0,98,0.08,,---,0.17,VWS V14.01,2013-01-15 13:30:00,
2013-01-15 08:40:00,52.0,51.5,30.07,North,0,0.0,0.0,98,0.11,,---,0.20,VWS V14.01,2013-01-15 13:40:00,
2013-01-15 08:50:00,52.1,51.5,30.07,North,0,0.0,0.0,98,0.13,,---,0.22,VWS V14.01,2013-01-15 13:50:00,
2013-01-15 09:00:00,52.2,51.7,30.07,North,0,0.0,0.0,98,0.12,,---,0.22,VWS V14.01,2013-01-15 14:00:00,
2013-01-15 09:10:00,52.0,51.5,30.07,North,0,0.0,0.0,98,0.12,,---,0.24,VWS V14.01,2013-01-15 14:10:00,
2013-01-15 09:20:00,51.9,51.4,30.07,North,0,0.0,0.0,98,0.10,,---,0.24,VWS V14.01,2013-01-15 14:20:00,
2013-01-15 09:30:00,51.4,50.9,30.07,WSW,255,0.0,0.0,98,0.17,,---,0.41,VWS V14.01,2013-01-15 14:30:00,
2013-01-15 09:36:00,51.8,51.3,30.08,WSW,255,0.0,0.0,98,0.11,,---,0.26,VWS V14.01,2013-01-15 14:36:00,
2013-01-15 09:40:00,51.7,51.2,30.08,WSW,255,0.0,0.0,98,0.11,,---,0.26,VWS V14.01,2013-01-15 14:40:00,
2013-01-15 09:41:00,51.7,51.2,30.08,WSW,255,0.0,0.0,98,0.06,,---,0.26,VWS V14.01,2013-01-15 14:41:00,
2013-01-15 09:46:00,51.7,51.2,30.08,WSW,255,0.0,0.0,98,0.07,,---,0.27,VWS V14.01,2013-01-15 14:46:00,
2013-01-15 09:50:00,51.6,51.1,30.08,WSW,255,0.0,0.0,98,0.08,,---,0.28,VWS V14.01,2013-01-15 14:50:00,
2013-01-15 09:51:00,51.6,51.1,30.08,WSW,255,0.0,0.0,98,0.06,,---,0.28,VWS V14.01,2013-01-15 14:51:00,
2013-01-15 09:56:00,51.6,51.1,30.08,WSW,255,0.0,0.0,98,0.09,,---,0.31,VWS V14.01,2013-01-15 14:56:00,
2013-01-15 10:00:00,51.6,51.1,30.08,WSW,255,0.0,0.0,98,0.12,,---,0.34,VWS V14.01,2013-01-15 15:00:00,
2013-01-15 10:01:00,51.6,51.1,30.08,WSW,255,0.0,0.0,98,0.13,,---,0.35,VWS V14.01,2013-01-15 15:01:00,
2013-01-15 10:06:00,51.5,51.0,30.07,WSW,255,0.0,0.0,98,0.15,,---,0.37,VWS V14.01,2013-01-15 15:06:00,
2013-01-15 10:10:00,51.5,51.0,30.07,WSW,255,0.0,0.0,98,0.16,,---,0.38,VWS V14.01,2013-01-15 15:10:00,
2013-01-15 10:11:00,51.5,51.0,30.07,WSW,255,0.0,0.0,98,0.15,,---,0.39,VWS V14.01,2013-01-15 15:11:00,
2013-01-15 10:16:00,51.5,51.0,30.07,WSW,255,0.0,0.0,98,0.16,,---,0.40,VWS V14.01,2013-01-15 15:16:00,
2013-01-15 10:20:00,51.5,51.0,30.07,WSW,255,0.0,0.0,98,0.17,,---,0.41,VWS V14.01,2013-01-15 15:20:00,
2013-01-15 10:21:00,51.4,50.9,30.07,WSW,255,0.0,0.0,98,0.17,,---,0.41,VWS V14.01,2013-01-15 15:21:00,
2013-01-15 10:26:00,51.4,50.9,30.07,WSW,255,0.0,0.0,98,0.17,,---,0.41,VWS V14.01,2013-01-15 15:26:00,
2013-01-15 10:30:00,51.4,50.9,30.07,WSW,255,0.0,0.0,98,0.17,,---,0.41,VWS V14.01,2013-01-15 15:30:00,
2013-01-15 10:31:00,51.4,50.9,30.07,WSW,255,0.0,0.0,98,0.15,,---,0.41,VWS V14.01,2013-01-15 15:31:00,
2013-01-15 10:36:00,51.4,50.9,30.07,WSW,255,0.0,0.0,98,0.16,,---,0.42,VWS V14.01,2013-01-15 15:36:00,
2013-01-15 10:40:00,51.4,50.9,30.07,WSW,255,0.0,0.0,98,0.16,,---,0.42,VWS V14.01,2013-01-15 15:40:00,
2013-01-15 10:41:00,51.5,51.0,30.07,WSW,255,0.0,0.0,98,0.16,,---,0.42,VWS V14.01,2013-01-15 15:41:00,
2013-01-15 10:46:00,51.5,51.0,30.06,WSW,255,0.0,0.0,98,0.17,,---,0.43,VWS V14.01,2013-01-15 15:46:00,
2013-01-15 10:50:00,51.6,51.1,30.06,WSW,255,0.0,0.0,98,0.18,,---,0.44,VWS V14.01,2013-01-15 15:50:00,
2013-01-15 10:51:00,51.6,51.1,30.07,WSW,255,0.0,0.0,98,0.16,,---,0.44,VWS V14.01,2013-01-15 15:51:00,
2013-01-15 10:56:00,51.6,51.1,30.06,WSW,255,0.0,0.0,98,0.16,,---,0.44,VWS V14.01,2013-01-15 15:56:00,
2013-01-15 11:00:00,51.6,51.1,30.06,WSW,255,0.0,0.0,98,0.17,,---,0.45,VWS V14.01,2013-01-15 16:00:00,
2013-01-15 11:01:00,51.6,51.1,30.06,WSW,255,0.0,0.0,98,0.11,,---,0.45,VWS V14.01,2013-01-15 16:01:00,
2013-01-15 11:06:00,51.6,51.1,30.06,WSW,255,0.0,0.0,98,0.11,,---,0.45,VWS V14.01,2013-01-15 16:06:00,
2013-01-15 11:10:00,51.7,51.2,30.06,WSW,255,0.0,0.0,98,0.11,,---,0.45,VWS V14.01,2013-01-15 16:10:00,
2013-01-15 11:11:00,51.8,51.3,30.06,WSW,255,0.0,0.0,98,0.07,,---,0.45,VWS V14.01,2013-01-15 16:11:00,
2013-01-15 11:16:00,51.9,51.4,30.06,WSW,255,0.0,0.0,98,0.07,,---,0.45,VWS V14.01,2013-01-15 16:16:00,
2013-01-15 11:20:00,52.0,51.5,30.06,WSW,255,0.0,0.0,98,0.08,,---,0.46,VWS V14.01,2013-01-15 16:20:00,
2013-01-15 11:21:00,52.0,51.5,30.05,WSW,255,0.0,0.0,98,0.05,,---,0.46,VWS V14.01,2013-01-15 16:21:00,
2013-01-15 11:26:00,52.1,51.5,30.05,WSW,255,0.0,0.0,98,0.05,,---,0.46,VWS V14.01,2013-01-15 16:26:00,
2013-01-15 11:30:00,52.1,51.6,30.05,WSW,255,0.0,0.0,98,0.05,,---,0.46,VWS V14.01,2013-01-15 16:30:00,
2013-01-15 11:31:00,52.2,51.7,30.05,WSW,255,0.0,0.0,98,0.05,,---,0.46,VWS V14.01,2013-01-15 16:31:00,
2013-01-15 11:36:00,52.3,51.8,30.04,WSW,255,0.0,0.0,98,0.06,,---,0.47,VWS V14.01,2013-01-15 16:36:00,
2013-01-15 11:40:00,52.4,51.8,30.04,WSW,253,0.0,0.0,98,0.06,,---,0.47,VWS V14.01,2013-01-15 16:40:00,
2013-01-15 11:41:00,52.4,51.8,30.04,WSW,253,0.0,0.0,98,0.05,,---,0.47,VWS V14.01,2013-01-15 16:41:00,
2013-01-15 11:46:00,52.5,52.0,30.04,WSW,253,0.0,0.0,98,0.06,,---,0.48,VWS V14.01,2013-01-15 16:46:00,
2013-01-15 11:50:00,52.5,52.0,30.03,WSW,253,0.0,0.0,98,0.06,,---,0.48,VWS V14.01,2013-01-15 16:50:00,
2013-01-15 11:51:00,52.6,52.0,30.03,WSW,253,0.0,0.0,98,0.04,,---,0.48,VWS V14.01,2013-01-15 16:51:00,
2013-01-15 11:56:00,52.7,52.2,30.03,WSW,253,0.0,0.0,98,0.05,,---,0.49,VWS V14.01,2013-01-15 16:56:00,
2013-01-15 12:00:00,52.8,52.2,30.03,WSW,253,0.0,0.0,98,0.05,,---,0.49,VWS V14.01,2013-01-15 17:00:00,
2013-01-15 12:01:00,52.8,52.2,30.03,WSW,253,0.0,0.0,98,0.04,,---,0.49,VWS V14.01,2013-01-15 17:01:00,
2013-01-15 12:06:00,52.9,52.3,30.02,WSW,253,0.0,0.0,98,0.04,,---,0.49,VWS V14.01,2013-01-15 17:06:00,
2013-01-15 12:10:00,53.0,52.5,30.02,WSW,253,0.0,0.0,98,0.05,,---,0.50,VWS V14.01,2013-01-15 17:10:00,
2013-01-15 12:11:00,53.1,52.5,30.02,WSW,253,0.0,0.0,98,0.05,,---,0.50,VWS V14.01,2013-01-15 17:11:00,
2013-01-15 12:16:00,53.2,52.7,30.02,WSW,253,0.0,0.0,98,0.05,,---,0.50,VWS V14.01,2013-01-15 17:16:00,
2013-01-15 12:20:00,53.2,52.7,30.01,WSW,253,0.0,0.0,98,0.05,,---,0.50,VWS V14.01,2013-01-15 17:20:00,
2013-01-15 12:21:00,53.2,52.7,30.01,WSW,253,0.0,0.0,98,0.04,,---,0.50,VWS V14.01,2013-01-15 17:21:00,
2013-01-15 12:26:00,53.3,52.8,30.01,WSW,253,0.0,0.0,98,0.05,,---,0.51,VWS V14.01,2013-01-15 17:26:00,
2013-01-15 12:30:00,53.4,52.8,30.01,WSW,253,0.0,0.0,98,0.05,,---,0.51,VWS V14.01,2013-01-15 17:30:00,
2013-01-15 12:31:00,53.4,52.8,30.01,WSW,253,0.0,0.0,98,0.05,,---,0.51,VWS V14.01,2013-01-15 17:31:00,
2013-01-15 12:36:00,53.5,53.0,30.01,WSW,253,0.0,0.0,98,0.06,,---,0.52,VWS V14.01,2013-01-15 17:36:00,
2013-01-15 12:40:00,53.5,53.0,30.01,WSW,253,0.0,0.0,98,0.06,,---,0.52,VWS V14.01,2013-01-15 17:40:00,
2013-01-15 12:41:00,53.6,53.0,30.01,WSW,253,0.0,0.0,98,0.05,,---,0.52,VWS V14.01,2013-01-15 17:41:00,
2013-01-15 12:46:00,53.6,53.0,30.01,WSW,253,0.0,0.0,98,0.05,,---,0.52,VWS V14.01,2013-01-15 17:46:00,
2013-01-15 12:50:00,53.7,53.2,30.00,WSW,253,0.0,0.0,98,0.06,,---,0.53,VWS V14.01,2013-01-15 17:50:00,
2013-01-15 12:51:00,53.7,53.2,30.00,WSW,253,0.0,0.0,98,0.05,,---,0.53,VWS V14.01,2013-01-15 17:51:00,
2013-01-15 12:56:00,53.8,53.2,30.00,WSW,253,0.0,0.0,98,0.05,,---,0.53,VWS V14.01,2013-01-15 17:56:00,
2013-01-15 13:00:00,53.9,53.3,30.00,WSW,253,0.0,0.0,98,0.06,,---,0.54,VWS V14.01,2013-01-15 18:00:00,
2013-01-15 13:01:00,53.9,53.3,30.00,WSW,253,0.0,0.0,98,0.05,,---,0.54,VWS V14.01,2013-01-15 18:01:00,
2013-01-15 13:06:00,54.0,53.5,30.00,WSW,253,0.0,0.0,98,0.05,,---,0.54,VWS V14.01,2013-01-15 18:06:00,
2013-01-15 13:10:00,54.1,53.5,30.00,WSW,253,0.0,0.0,98,0.06,,---,0.55,VWS V14.01,2013-01-15 18:10:00,
2013-01-15 13:11:00,54.1,53.5,30.00,WSW,253,0.0,0.0,98,0.05,,---,0.55,VWS V14.01,2013-01-15 18:11:00,
2013-01-15 13:16:00,54.2,53.7,29.99,WSW,253,0.0,0.0,98,0.05,,---,0.55,VWS V14.01,2013-01-15 18:16:00,
2013-01-15 13:20:00,54.3,53.8,29.99,WSW,253,0.0,0.0,98,0.05,,---,0.55,VWS V14.01,2013-01-15 18:20:00,
2013-01-15 13:21:00,54.3,53.8,29.99,WSW,253,0.0,0.0,98,0.05,,---,0.55,VWS V14.01,2013-01-15 18:21:00,
2013-01-15 13:26:00,54.3,53.8,29.99,WSW,253,0.0,0.0,98,0.06,,---,0.56,VWS V14.01,2013-01-15 18:26:00,
2013-01-15 13:30:00,55.1,54.5,29.97,WSW,253,0.0,0.0,98,0.12,,---,0.67,VWS V14.01,2013-01-15 18:30:00,
2013-01-15 13:31:00,54.4,53.8,29.99,WSW,253,0.0,0.0,98,0.06,,---,0.57,VWS V14.01,2013-01-15 18:31:00,
2013-01-15 13:36:00,54.4,53.8,29.98,WSW,253,0.0,0.0,98,0.08,,---,0.59,VWS V14.01,2013-01-15 18:36:00,
2013-01-15 13:40:00,55.2,54.7,29.97,WSW,253,0.0,0.0,98,0.10,,---,0.67,VWS V14.01,2013-01-15 18:40:00,
2013-01-15 13:41:00,54.5,54.0,29.98,WSW,253,0.0,0.0,98,0.08,,---,0.60,VWS V14.01,2013-01-15 18:41:00,
2013-01-15 13:46:00,54.6,54.0,29.98,WSW,253,0.0,0.0,98,0.09,,---,0.61,VWS V14.01,2013-01-15 18:46:00,
2013-01-15 13:50:00,55.4,54.8,29.96,WSW,253,0.0,0.0,98,0.07,,---,0.67,VWS V14.01,2013-01-15 18:50:00,
2013-01-15 13:51:00,54.7,54.2,29.97,WSW,253,0.0,0.0,98,0.10,,---,0.63,VWS V14.01,2013-01-15 18:51:00,
2013-01-15 13:56:00,54.7,54.2,29.97,WSW,253,0.0,0.0,98,0.11,,---,0.64,VWS V14.01,2013-01-15 18:56:00,
2013-01-15 14:00:00,55.5,55.0,29.96,WSW,253,0.0,0.0,98,0.05,,---,0.67,VWS V14.01,2013-01-15 19:00:00,
2013-01-15 14:01:00,54.8,54.2,29.97,WSW,253,0.0,0.0,98,0.10,,---,0.64,VWS V14.01,2013-01-15 19:01:00,
2013-01-15 14:06:00,54.9,54.3,29.97,WSW,253,0.0,0.0,98,0.12,,---,0.66,VWS V14.01,2013-01-15 19:06:00,
2013-01-15 14:10:00,55.7,55.2,29.96,WSW,253,0.0,0.0,98,0.03,,---,0.67,VWS V14.01,2013-01-15 19:10:00,
2013-01-15 14:11:00,54.9,54.3,29.97,WSW,253,0.0,0.0,98,0.12,,---,0.67,VWS V14.01,2013-01-15 19:11:00,
2013-01-15 14:16:00,55.0,54.5,29.97,WSW,253,0.0,0.0,98,0.12,,---,0.67,VWS V14.01,2013-01-15 19:16:00,
2013-01-15 14:20:00,55.9,55.3,29.97,WSW,253,0.0,0.0,98,0.00,,---,0.67,VWS V14.01,2013-01-15 19:20:00,
2013-01-15 14:21:00,55.0,54.5,29.97,WSW,253,0.0,0.0,98,0.12,,---,0.67,VWS V14.01,2013-01-15 19:21:00,
2013-01-15 14:26:00,55.0,54.5,29.97,WSW,253,0.0,0.0,98,0.12,,---,0.67,VWS V14.01,2013-01-15 19:26:00,
2013-01-15 14:30:00,56.1,55.5,29.96,WSW,253,0.0,0.0,98,0.00,,---,0.67,VWS V14.01,2013-01-15 19:30:00,
2013-01-15 14:31:00,55.1,54.5,29.97,WSW,253,0.0,0.0,98,0.10,,---,0.67,VWS V14.01,2013-01-15 19:31:00,
2013-01-15 14:36:00,55.2,54.7,29.97,WSW,253,0.0,0.0,98,0.10,,---,0.67,VWS V14.01,2013-01-15 19:36:00,
2013-01-15 14:40:00,56.4,55.8,29.97,WSW,253,0.0,0.0,98,0.00,,---,0.67,VWS V14.01,2013-01-15 19:40:00,
2013-01-15 14:41:00,55.2,54.7,29.97,WSW,253,0.0,0.0,98,0.07,,---,0.67,VWS V14.01,2013-01-15 19:41:00,
2013-01-15 14:46:00,55.3,54.8,29.96,WSW,253,0.0,0.0,98,0.07,,---,0.67,VWS V14.01,2013-01-15 19:46:00,
2013-01-15 14:50:00,56.6,56.3,29.97,WSW,241,0.0,1.0,99,0.00,,---,0.67,VWS V14.01,2013-01-15 19:50:00,
2013-01-15 14:51:00,55.4,54.8,29.96,WSW,253,0.0,0.0,98,0.05,,---,0.67,VWS V14.01,2013-01-15 19:51:00,
2013-01-15 14:56:00,55.5,55.0,29.97,WSW,253,0.0,0.0,98,0.05,,---,0.67,VWS V14.01,2013-01-15 19:56:00,
2013-01-15 15:00:00,56.8,56.2,29.97,WSW,240,0.0,0.0,98,0.00,,---,0.67,VWS V14.01,2013-01-15 20:00:00,
2013-01-15 15:01:00,55.6,55.0,29.96,WSW,253,0.0,0.0,98,0.03,,---,0.67,VWS V14.01,2013-01-15 20:01:00,
2013-01-15 15:06:00,55.7,55.2,29.96,WSW,253,0.0,0.0,98,0.03,,---,0.67,VWS V14.01,2013-01-15 20:06:00,
2013-01-15 15:10:00,56.9,56.3,29.97,WSW,240,0.0,0.0,98,0.00,,---,0.67,VWS V14.01,2013-01-15 20:10:00,
2013-01-15 15:11:00,55.7,55.2,29.96,WSW,253,0.0,0.0,98,0.00,,---,0.67,VWS V14.01,2013-01-15 20:11:00,
2013-01-15 15:16:00,55.9,55.3,29.96,WSW,253,0.0,0.0,98,0.00,,---,0.67,VWS V14.01,2013-01-15 20:16:00,
2013-01-15 15:20:00,57.2,56.9,29.98,WSW,240,0.0,0.0,99,0.00,,---,0.67,VWS V14.01,2013-01-15 20:20:00,
2013-01-15 15:21:00,55.9,55.3,29.97,WSW,253,0.0,0.0,98,0.00,,---,0.67,VWS V14.01,2013-01-15 20:21:00,
2013-01-15 15:26:00,56.0,55.5,29.97,WSW,253,0.0,0.0,98,0.00,,---,0.67,VWS V14.01,2013-01-15 20:26:00,
2013-01-15 15:30:00,57.5,57.2,29.98,WSW,239,0.0,0.0,99,0.00,,---,0.67,VWS V14.01,2013-01-15 20:30:00,
2013-01-15 15:31:00,56.1,55.5,29.97,WSW,253,0.0,0.0,98,0.00,,---,0.67,VWS V14.01,2013-01-15 20:31:00,
2013-01-15 15:36:00,56.2,55.7,29.97,WSW,253,0.0,0.0,98,0.00,,---,0.67,VWS V14.01,2013-01-15 20:36:00,
2013-01-15 15:40:00,57.6,57.3,29.98,WSW,240,0.0,0.0,99,0.00,,---,0.67,VWS V14.01,2013-01-15 20:40:00,
2013-01-15 15:41:00,56.4,55.8,29.97,WSW,253,0.0,0.0,98,0.00,,---,0.67,VWS V14.01,2013-01-15 20:41:00,
2013-01-15 15:46:00,56.5,55.9,29.97,WSW,253,0.0,0.0,98,0.00,,---,0.67,VWS V14.01,2013-01-15 20:46:00,
2013-01-15 15:50:00,57.8,57.5,29.99,WSW,239,0.0,0.0,99,0.00,,---,0.67,VWS V14.01,2013-01-15 20:50:00,
2013-01-15 15:51:00,56.6,56.3,29.97,WSW,240,0.0,0.0,99,0.00,,---,0.67,VWS V14.01,2013-01-15 20:51:00,
2013-01-15 15:56:00,56.7,56.4,29.97,WSW,240,0.0,0.0,99,0.00,,---,0.67,VWS V14.01,2013-01-15 20:56:00,
2013-01-15 16:00:00,57.7,57.1,29.99,WSW,239,0.0,0.0,98,0.00,,---,0.67,VWS V14.01,2013-01-15 21:00:00,
2013-01-15 16:01:00,56.8,56.2,29.97,WSW,241,0.0,0.0,98,0.00,,---,0.67,VWS V14.01,2013-01-15 21:01:00,
2013-01-15 16:06:00,56.8,56.5,29.97,WSW,240,0.0,0.0,99,0.00,,---,0.67,VWS V14.01,2013-01-15 21:06:00,
2013-01-15 16:10:00,57.5,56.9,29.99,WSW,239,0.0,0.0,98,0.00,,---,0.67,VWS V14.01,2013-01-15 21:10:00,
2013-01-15 16:11:00,56.9,56.6,29.97,WSW,240,0.0,0.0,99,0.00,,---,0.67,VWS V14.01,2013-01-15 21:11:00,
2013-01-15 16:16:00,57.0,56.7,29.97,WSW,240,0.0,0.0,99,0.00,,---,0.67,VWS V14.01,2013-01-15 21:16:00,
2013-01-15 16:20:00,57.5,56.9,29.98,WSW,240,0.0,0.0,98,0.00,,---,0.67,VWS V14.01,2013-01-15 21:20:00,
2013-01-15 16:21:00,57.2,56.9,29.98,WSW,240,0.0,0.0,99,0.00,,---,0.67,VWS V14.01,2013-01-15 21:21:00,
2013-01-15 16:26:00,57.4,57.1,29.98,WSW,239,0.0,0.0,99,0.00,,---,0.67,VWS V14.01,2013-01-15 21:26:00,
2013-01-15 16:30:00,57.8,57.5,29.99,WSW,239,0.0,0.0,99,0.00,,---,0.67,VWS V14.01,2013-01-15 21:30:00,
2013-01-15 16:31:00,57.6,57.3,29.98,WSW,240,0.0,0.0,99,0.00,,---,0.67,VWS V14.01,2013-01-15 21:31:00,
2013-01-15 16:36:00,57.6,57.3,29.98,WSW,239,0.0,0.0,99,0.00,,---,0.67,VWS V14.01,2013-01-15 21:36:00,
2013-01-15 16:40:00,58.2,57.9,29.99,WSW,239,0.0,0.0,99,0.00,,---,0.67,VWS V14.01,2013-01-15 21:40:00,
2013-01-15 16:41:00,57.6,57.3,29.98,WSW,240,0.0,0.0,99,0.00,,---,0.67,VWS V14.01,2013-01-15 21:41:00,
2013-01-15 16:46:00,57.7,57.4,29.98,WSW,239,0.0,0.0,99,0.00,,---,0.67,VWS V14.01,2013-01-15 21:46:00,
2013-01-15 16:50:00,58.3,58.0,29.99,WSW,239,0.0,0.0,99,0.00,,---,0.67,VWS V14.01,2013-01-15 21:50:00,
2013-01-15 16:51:00,57.8,57.5,29.98,WSW,239,0.0,0.0,99,0.00,,---,0.67,VWS V14.01,2013-01-15 21:51:00,
2013-01-15 16:56:00,57.8,57.5,29.98,WSW,239,0.0,0.0,99,0.00,,---,0.67,VWS V14.01,2013-01-15 21:56:00,
2013-01-15 17:00:00,58.7,58.4,29.98,WSW,240,0.0,0.0,99,0.00,,---,0.67,VWS V14.01,2013-01-15 22:00:00,
2013-01-15 17:01:00,57.7,57.1,29.99,WSW,239,0.0,0.0,98,0.00,,---,0.67,VWS V14.01,2013-01-15 22:01:00,
2013-01-15 17:06:00,57.6,57.0,29.99,WSW,239,0.0,0.0,98,0.00,,---,0.67,VWS V14.01,2013-01-15 22:06:00,
2013-01-15 17:10:00,59.5,59.2,29.98,WSW,239,0.0,0.0,99,0.00,,---,0.67,VWS V14.01,2013-01-15 22:10:00,
2013-01-15 17:11:00,57.5,56.9,29.99,WSW,239,0.0,0.0,98,0.00,,---,0.67,VWS V14.01,2013-01-15 22:11:00,
2013-01-15 17:16:00,57.5,56.9,29.99,WSW,239,0.0,0.0,98,0.00,,---,0.67,VWS V14.01,2013-01-15 22:16:00,
2013-01-15 17:20:00,60.0,59.7,29.98,WSW,239,0.0,0.0,99,0.00,,---,0.67,VWS V14.01,2013-01-15 22:20:00,
2013-01-15 17:21:00,57.5,56.9,29.99,WSW,239,0.0,0.0,98,0.00,,---,0.67,VWS V14.01,2013-01-15 22:21:00,
2013-01-15 17:26:00,57.6,57.0,29.99,WSW,239,0.0,0.0,98,0.00,,---,0.67,VWS V14.01,2013-01-15 22:26:00,
2013-01-15 17:30:00,60.2,59.9,29.98,WSW,240,0.0,0.0,99,0.00,,---,0.67,VWS V14.01,2013-01-15 22:30:00,
2013-01-15 17:31:00,57.9,57.6,29.99,WSW,240,0.0,0.0,99,0.00,,---,0.67,VWS V14.01,2013-01-15 22:31:00,
2013-01-15 17:36:00,58.1,57.8,29.99,WSW,239,0.0,0.0,99,0.00,,---,0.67,VWS V14.01,2013-01-15 22:36:00,
2013-01-15 17:40:00,60.0,59.7,29.98,WSW,240,0.0,0.0,99,0.00,,---,0.67,VWS V14.01,2013-01-15 22:40:00,
2013-01-15 17:41:00,58.2,57.9,29.99,WSW,240,0.0,0.0,99,0.00,,---,0.67,VWS V14.01,2013-01-15 22:41:00,
2013-01-15 17:46:00,58.3,58.0,29.99,WSW,239,0.0,0.0,99,0.00,,---,0.67,VWS V14.01,2013-01-15 22:46:00,
2013-01-15 17:50:00,60.4,60.1,29.98,WSW,239,0.0,0.0,99,0.00,,---,0.67,VWS V14.01,2013-01-15 22:50:00,
2013-01-15 17:51:00,58.3,58.0,29.99,WSW,239,0.0,0.0,99,0.00,,---,0.67,VWS V14.01,2013-01-15 22:51:00,
2013-01-15 17:56:00,58.4,58.1,29.99,WSW,239,0.0,0.0,99,0.00,,---,0.67,VWS V14.01,2013-01-15 22:56:00,
2013-01-15 18:00:00,60.8,60.5,29.98,WSW,240,0.0,0.0,99,0.01,,---,0.68,VWS V14.01,2013-01-15 23:00:00,
2013-01-15 18:01:00,58.7,58.4,29.98,WSW,240,0.0,0.0,99,0.00,,---,0.67,VWS V14.01,2013-01-15 23:01:00,
2013-01-15 18:06:00,59.2,58.9,29.99,WSW,239,0.0,0.0,99,0.00,,---,0.67,VWS V14.01,2013-01-15 23:06:00,
2013-01-15 18:10:00,61.1,60.8,29.99,WSW,240,0.0,0.0,99,0.03,,---,0.70,VWS V14.01,2013-01-15 23:10:00,
2013-01-15 18:11:00,59.6,59.3,29.98,WSW,239,0.0,0.0,99,0.00,,---,0.67,VWS V14.01,2013-01-15 23:11:00,
2013-01-15 18:16:00,59.9,59.6,29.98,WSW,240,0.0,0.0,99,0.00,,---,0.67,VWS V14.01,2013-01-15 23:16:00,
2013-01-15 18:20:00,60.5,60.2,29.98,WSW,239,0.0,0.0,99,0.03,,---,0.70,VWS V14.01,2013-01-15 23:20:00,
2013-01-15 18:21:00,60.0,59.7,29.98,WSW,240,0.0,0.0,99,0.00,,---,0.67,VWS V14.01,2013-01-15 23:21:00,
2013-01-15 18:26:00,60.2,59.9,29.98,WSW,240,0.0,0.0,99,0.00,,---,0.67,VWS V14.01,2013-01-15 23:26:00,
2013-01-15 18:30:00,59.9,59.3,29.98,WSW,239,0.0,0.0,98,0.03,,---,0.70,VWS V14.01,2013-01-15 23:30:00,
2013-01-15 18:31:00,60.2,59.9,29.98,WSW,239,0.0,0.0,99,0.00,,---,0.67,VWS V14.01,2013-01-15 23:31:00,
2013-01-15 18:36:00,60.1,59.8,29.98,WSW,240,0.0,0.0,99,0.00,,---,0.67,VWS V14.01,2013-01-15 23:36:00,
2013-01-15 18:40:00,59.6,59.0,29.98,WSW,239,0.0,0.0,98,0.03,,---,0.70,VWS V14.01,2013-01-15 23:40:00,
2013-01-15 18:41:00,60.0,59.7,29.98,WSW,239,0.0,0.0,99,0.00,,---,0.67,VWS V14.01,2013-01-15 23:41:00,
2013-01-15 18:46:00,60.2,59.9,29.98,WSW,239,0.0,0.0,99,0.00,,---,0.67,VWS V14.01,2013-01-15 23:46:00,
2013-01-15 18:50:00,59.5,58.9,29.98,WSW,239,0.0,0.0,98,0.03,,---,0.70,VWS V14.01,2013-01-15 23:50:00,
2013-01-15 18:51:00,60.4,60.1,29.98,WSW,239,0.0,0.0,99,0.00,,---,0.67,VWS V14.01,2013-01-15 23:51:00,
2013-01-15 18:56:00,60.7,60.4,29.98,WSW,240,0.0,0.0,99,0.00,,---,0.67,VWS V14.01,2013-01-15 23:56:00,
2013-01-15 19:00:00,59.3,58.7,29.97,WSW,239,0.0,0.0,98,0.03,,---,0.70,VWS V14.01,2013-01-16 00:00:00,
2013-01-15 19:01:00,60.8,60.5,29.98,WSW,239,0.0,0.0,99,0.01,,---,0.68,VWS V14.01,2013-01-16 00:01:00,
2013-01-15 19:06:00,60.9,60.6,29.98,WSW,239,0.0,0.0,99,0.03,,---,0.70,VWS V14.01,2013-01-16 00:06:00,
2013-01-15 19:10:00,59.3,58.7,29.97,WSW,239,0.0,0.0,98,0.03,,---,0.71,VWS V14.01,2013-01-16 00:10:00,
2013-01-15 19:11:00,61.1,60.8,29.99,WSW,239,0.0,0.0,99,0.03,,---,0.70,VWS V14.01,2013-01-16 00:11:00,
2013-01-15 19:16:00,61.1,60.8,29.99,WSW,239,0.0,0.0,99,0.03,,---,0.70,VWS V14.01,2013-01-16 00:16:00,
2013-01-15 19:20:00,59.4,58.8,29.97,WSW,239,0.0,0.0,98,0.01,,---,0.71,VWS V14.01,2013-01-16 00:20:00,
2013-01-15 19:21:00,60.4,59.8,29.98,WSW,239,0.0,0.0,98,0.03,,---,0.70,VWS V14.01,2013-01-16 00:21:00,
2013-01-15 19:26:00,60.1,59.5,29.98,WSW,240,0.0,0.0,98,0.03,,---,0.70,VWS V14.01,2013-01-16 00:26:00,
2013-01-15 19:30:00,59.4,59.1,29.98,WSW,240,0.0,0.0,99,0.01,,---,0.71,VWS V14.01,2013-01-16 00:30:00,
2013-01-15 19:31:00,59.9,59.3,29.98,WSW,239,0.0,0.0,98,0.03,,---,0.70,VWS V14.01,2013-01-16 00:31:00,
2013-01-15 19:36:00,59.7,59.1,29.98,WSW,239,0.0,0.0,98,0.03,,---,0.70,VWS V14.01,2013-01-16 00:36:00,
2013-01-15 19:40:00,59.2,58.6,29.97,WSW,239,0.0,0.0,98,0.10,,---,0.80,VWS V14.01,2013-01-16 00:40:00,
2013-01-15 19:41:00,59.6,59.0,29.98,WSW,240,0.0,0.0,98,0.03,,---,0.70,VWS V14.01,2013-01-16 00:41:00,
2013-01-15 19:46:00,59.5,58.9,29.98,WSW,240,0.0,0.0,98,0.03,,---,0.70,VWS V14.01,2013-01-16 00:46:00,
2013-01-15 19:50:00,59.0,58.4,29.97,WSW,240,0.0,0.0,98,0.12,,---,0.82,VWS V14.01,2013-01-16 00:50:00,
2013-01-15 19:51:00,59.5,58.9,29.98,WSW,240,0.0,0.0,98,0.03,,---,0.70,VWS V14.01,2013-01-16 00:51:00,
2013-01-15 19:56:00,59.4,58.8,29.98,WSW,239,0.0,0.0,98,0.03,,---,0.70,VWS V14.01,2013-01-16 00:56:00,
2013-01-15 20:00:00,58.8,58.2,29.96,WSW,240,0.0,0.0,98,0.13,,---,0.83,VWS V14.01,2013-01-16 01:00:00,
2013-01-15 20:01:00,59.3,58.7,29.97,WSW,239,0.0,0.0,98,0.02,,---,0.70,VWS V14.01,2013-01-16 01:01:00,
2013-01-15 20:06:00,59.3,58.7,29.97,WSW,239,0.0,0.0,98,0.02,,---,0.70,VWS V14.01,2013-01-16 01:06:00,
2013-01-15 20:10:00,58.8,58.2,29.96,WSW,239,0.0,0.0,98,0.13,,---,0.83,VWS V14.01,2013-01-16 01:10:00,
2013-01-15 20:11:00,59.3,58.7,29.97,WSW,240,0.0,0.0,98,0.01,,---,0.71,VWS V14.01,2013-01-16 01:11:00,
2013-01-15 20:16:00,59.3,58.7,29.97,WSW,239,0.0,0.0,98,0.01,,---,0.71,VWS V14.01,2013-01-16 01:16:00,
2013-01-15 20:20:00,58.8,58.2,29.96,WSW,239,0.0,0.0,98,0.12,,---,0.83,VWS V14.01,2013-01-16 01:20:00,
2013-01-15 20:21:00,59.4,59.1,29.97,WSW,239,0.0,0.0,99,0.01,,---,0.71,VWS V14.01,2013-01-16 01:21:00,
2013-01-15 20:26:00,59.4,58.8,29.97,WSW,239,0.0,0.0,98,0.01,,---,0.71,VWS V14.01,2013-01-16 01:26:00,
2013-01-15 20:30:00,58.9,58.6,29.97,WSW,239,0.0,0.0,99,0.12,,---,0.83,VWS V14.01,2013-01-16 01:30:00,
2013-01-15 20:31:00,59.4,59.1,29.98,WSW,240,0.0,0.0,99,0.01,,---,0.71,VWS V14.01,2013-01-16 01:31:00,
2013-01-15 20:36:00,59.3,58.7,29.97,WSW,239,0.0,0.0,98,0.03,,---,0.73,VWS V14.01,2013-01-16 01:36:00,
2013-01-15 20:40:00,58.8,58.2,29.96,WSW,240,0.0,0.0,98,0.13,,---,0.84,VWS V14.01,2013-01-16 01:40:00,
2013-01-15 20:41:00,59.1,58.5,29.97,WSW,240,0.0,0.0,98,0.11,,---,0.81,VWS V14.01,2013-01-16 01:41:00,
2013-01-15 20:46:00,59.1,58.5,29.97,WSW,239,0.0,0.0,98,0.12,,---,0.82,VWS V14.01,2013-01-16 01:46:00,
2013-01-15 20:50:00,58.8,58.2,29.96,WSW,239,0.0,0.0,98,0.04,,---,0.84,VWS V14.01,2013-01-16 01:50:00,
2013-01-15 20:51:00,59.0,58.4,29.97,WSW,240,0.0,0.0,98,0.12,,---,0.82,VWS V14.01,2013-01-16 01:51:00,
2013-01-15 20:56:00,58.9,58.3,29.96,WSW,239,0.0,0.0,98,0.12,,---,0.82,VWS V14.01,2013-01-16 01:56:00,
2013-01-15 21:00:00,58.8,58.2,29.97,WSW,240,0.0,0.0,98,0.02,,---,0.84,VWS V14.01,2013-01-16 02:00:00,
2013-01-15 21:01:00,58.8,58.2,29.96,WSW,239,0.0,0.0,98,0.13,,---,0.83,VWS V14.01,2013-01-16 02:01:00,
2013-01-15 21:06:00,58.8,58.2,29.96,WSW,240,0.0,0.0,98,0.13,,---,0.83,VWS V14.01,2013-01-16 02:06:00,
2013-01-15 21:10:00,58.9,58.6,29.96,WSW,239,0.0,0.0,99,0.01,,---,0.84,VWS V14.01,2013-01-16 02:10:00,
2013-01-15 21:11:00,58.8,58.2,29.96,WSW,240,0.0,0.0,98,0.12,,---,0.83,VWS V14.01,2013-01-16 02:11:00,
2013-01-15 21:16:00,58.8,58.2,29.96,WSW,240,0.0,0.0,98,0.12,,---,0.83,VWS V14.01,2013-01-16 02:16:00,
2013-01-15 21:20:00,58.9,58.6,29.96,WSW,240,0.0,0.0,99,0.02,,---,0.85,VWS V14.01,2013-01-16 02:20:00,
2013-01-15 21:21:00,58.8,58.2,29.97,WSW,240,0.0,0.0,98,0.12,,---,0.83,VWS V14.01,2013-01-16 02:21:00,
2013-01-15 21:26:00,58.8,58.2,29.97,WSW,239,0.0,0.0,98,0.12,,---,0.83,VWS V14.01,2013-01-16 02:26:00,
2013-01-15 21:30:00,58.9,58.6,29.96,WSW,239,0.0,0.0,99,0.07,,---,0.90,VWS V14.01,2013-01-16 02:30:00,
2013-01-15 21:31:00,58.9,58.6,29.97,WSW,239,0.0,0.0,99,0.12,,---,0.83,VWS V14.01,2013-01-16 02:31:00,
2013-01-15 21:36:00,58.9,58.3,29.97,WSW,239,0.0,0.0,98,0.13,,---,0.84,VWS V14.01,2013-01-16 02:36:00,
2013-01-15 21:40:00,58.9,58.6,29.95,WSW,239,0.0,0.0,99,0.07,,---,0.90,VWS V14.01,2013-01-16 02:40:00,
2013-01-15 21:41:00,58.8,58.2,29.96,WSW,239,0.0,0.0,98,0.04,,---,0.84,VWS V14.01,2013-01-16 02:41:00,
2013-01-15 21:46:00,58.8,58.2,29.96,WSW,239,0.0,0.0,98,0.04,,---,0.84,VWS V14.01,2013-01-16 02:46:00,
2013-01-15 21:50:00,59.0,58.7,29.95,WSW,240,0.0,0.0,99,0.06,,---,0.90,VWS V14.01,2013-01-16 02:50:00,
2013-01-15 21:51:00,58.8,58.2,29.96,WSW,239,0.0,0.0,98,0.02,,---,0.84,VWS V14.01,2013-01-16 02:51:00,
2013-01-15 21:56:00,58.8,58.2,29.97,WSW,240,0.0,0.0,98,0.02,,---,0.84,VWS V14.01,2013-01-16 02:56:00,
2013-01-15 22:00:00,59.3,59.0,29.95,WSW,240,0.0,0.0,99,0.06,,---,0.90,VWS V14.01,2013-01-16 03:00:00,
2013-01-15 22:01:00,58.8,58.5,29.97,WSW,239,0.0,0.0,99,0.01,,---,0.84,VWS V14.01,2013-01-16 03:01:00,
2013-01-15 22:06:00,58.8,58.5,29.97,WSW,240,0.0,0.0,99,0.01,,---,0.84,VWS V14.01,2013-01-16 03:06:00,
2013-01-15 22:10:00,59.5,59.2,29.95,WSW,239,0.0,0.0,99,0.06,,---,0.90,VWS V14.01,2013-01-16 03:10:00,
2013-01-15 22:11:00,58.9,58.6,29.96,WSW,239,0.0,0.0,99,0.01,,---,0.84,VWS V14.01,2013-01-16 03:11:00,
2013-01-15 22:16:00,58.9,58.6,29.96,WSW,240,0.0,0.0,99,0.01,,---,0.84,VWS V14.01,2013-01-16 03:16:00,
2013-01-15 22:20:00,59.7,59.4,29.95,WSW,239,0.0,0.0,99,0.06,,---,0.90,VWS V14.01,2013-01-16 03:20:00,
2013-01-15 22:21:00,58.9,58.6,29.96,WSW,239,0.0,0.0,99,0.02,,---,0.85,VWS V14.01,2013-01-16 03:21:00,
2013-01-15 22:26:00,58.9,58.6,29.96,WSW,240,0.0,0.0,99,0.04,,---,0.87,VWS V14.01,2013-01-16 03:26:00,
2013-01-15 22:30:00,60.2,59.9,29.95,WSW,240,0.0,0.0,99,0.05,,---,0.90,VWS V14.01,2013-01-16 03:30:00,
2013-01-15 22:31:00,58.9,58.6,29.96,WSW,239,0.0,0.0,99,0.07,,---,0.90,VWS V14.01,2013-01-16 03:31:00,
2013-01-15 22:36:00,58.9,58.6,29.95,WSW,239,0.0,0.0,99,0.07,,---,0.90,VWS V14.01,2013-01-16 03:36:00,
2013-01-15 22:40:00,60.5,60.2,29.94,WSW,239,0.0,0.0,99,0.00,,---,0.90,VWS V14.01,2013-01-16 03:40:00,
2013-01-15 22:41:00,59.0,58.7,29.95,WSW,239,0.0,0.0,99,0.06,,---,0.90,VWS V14.01,2013-01-16 03:41:00,
2013-01-15 22:46:00,59.0,58.7,29.96,WSW,239,0.0,0.0,99,0.06,,---,0.90,VWS V14.01,2013-01-16 03:46:00,
2013-01-15 22:50:00,61.1,60.8,29.94,WSW,239,0.0,0.0,99,0.00,,---,0.90,VWS V14.01,2013-01-16 03:50:00,
2013-01-15 22:51:00,59.0,58.7,29.95,WSW,239,0.0,0.0,99,0.06,,---,0.90,VWS V14.01,2013-01-16 03:51:00,
2013-01-15 22:56:00,59.2,58.9,29.95,WSW,240,0.0,0.0,99,0.06,,---,0.90,VWS V14.01,2013-01-16 03:56:00,
2013-01-15 23:00:00,61.4,61.1,29.93,WSW,240,0.0,0.0,99,0.00,,---,0.00,VWS V14.01,2013-01-16 04:00:00,
2013-01-15 23:01:00,59.3,59.0,29.95,WSW,240,0.0,0.0,99,0.06,,---,0.90,VWS V14.01,2013-01-16 04:01:00,
2013-01-15 23:06:00,59.4,59.1,29.95,WSW,239,0.0,0.0,99,0.06,,---,0.90,VWS V14.01,2013-01-16 04:06:00,
2013-01-15 23:10:00,61.8,61.5,29.93,WSW,242,0.0,0.0,99,0.01,,---,0.01,VWS V14.01,2013-01-16 04:10:00,
2013-01-15 23:11:00,59.5,59.2,29.95,WSW,239,0.0,0.0,99,0.06,,---,0.90,VWS V14.01,2013-01-16 04:11:00,
2013-01-15 23:16:00,59.7,59.4,29.95,WSW,239,0.0,0.0,99,0.06,,---,0.90,VWS V14.01,2013-01-16 04:16:00,
2013-01-15 23:20:00,62.3,62.0,29.93,WSW,246,0.0,1.0,99,0.02,,---,0.02,VWS V14.01,2013-01-16 04:20:00,
2013-01-15 23:21:00,59.7,59.4,29.94,WSW,239,0.0,0.0,99,0.05,,---,0.90,VWS V14.01,2013-01-16 04:21:00,
2013-01-15 23:26:00,59.9,59.6,29.95,WSW,239,0.0,0.0,99,0.05,,---,0.90,VWS V14.01,2013-01-16 04:26:00,
2013-01-15 23:30:00,62.5,62.2,29.92,WSW,246,0.0,0.0,99,0.02,,---,0.02,VWS V14.01,2013-01-16 04:30:00,
2013-01-15 23:31:00,60.2,59.9,29.95,WSW,239,0.0,0.0,99,0.00,,---,0.90,VWS V14.01,2013-01-16 04:31:00,
2013-01-15 23:36:00,60.3,60.0,29.94,WSW,240,0.0,0.0,99,0.00,,---,0.90,VWS V14.01,2013-01-16 04:36:00,
2013-01-15 23:40:00,62.7,62.4,29.93,WSW,256,0.0,1.0,99,0.02,,---,0.02,VWS V14.01,2013-01-16 04:40:00,
2013-01-15 23:41:00,60.6,60.3,29.94,WSW,240,0.0,0.0,99,0.00,,---,0.90,VWS V14.01,2013-01-16 04:41:00,
2013-01-15 23:46:00,60.9,60.6,29.94,WSW,239,0.0,0.0,99,0.00,,---,0.90,VWS V14.01,2013-01-16 04:46:00,
2013-01-15 23:50:00,62.8,62.5,29.93,WSW,256,0.0,1.0,99,0.02,,---,0.02,VWS V14.01,2013-01-16 04:50:00,
2013-01-15 23:51:00,61.1,60.8,29.94,WSW,240,0.0,0.0,99,0.00,,---,0.90,VWS V14.01,2013-01-16 04:51:00,
2013-01-15 23:56:00,61.2,60.9,29.94,WSW,240,0.0,0.0,99,0.00,,---,0.90,VWS V14.01,2013-01-16 04:56:00,